sensor_id;sensor_type;location;lat;lon;timestamp;P1;durP1;ratioP1;P2;durP2;ratioP2
25649;SDS011;13505;45.196;5.696;2023-06-19T06:03:08;12.45;;;6.38;;
25649;SDS011;13505;45.196;5.696;2023-06-19T06:07:58;13.50;;;7.10;;
25649;SDS011;13505;45.196;5.696;2023-06-19T06:12:49;14.98;;;7.25;;
25649;SDS011;13505;45.196;5.696;2023-06-19T06:17:41;16.30;;;7.28;;
25649;SDS011;13505;45.196;5.696;2023-06-19T06:22:31;15.33;;;6.87;;
25649;SDS011;13505;45.196;5.696;2023-06-19T06:27:21;17.50;;;7.57;;
25649;SDS011;13505;45.196;5.696;2023-06-19T06:32:11;10.52;;;6.95;;
25649;SDS011;13505;45.196;5.696;2023-06-19T06:37:02;23.58;;;7.38;;
25649;SDS011;13505;45.196;5.696;2023-06-19T06:41:53;13.55;;;7.20;;
25649;SDS011;13505;45.196;5.696;2023-06-19T06:46:43;12.23;;;6.85;;
25649;SDS011;13505;45.196;5.696;2023-06-19T06:51:33;14.57;;;7.07;;
25649;SDS011;13505;45.196;5.696;2023-06-19T06:56:24;20.98;;;7.78;;
25649;SDS011;13505;45.196;5.696;2023-06-19T07:01:14;13.93;;;7.30;;
25649;SDS011;13505;45.196;5.696;2023-06-19T07:06:05;13.18;;;6.35;;
25649;SDS011;13505;45.196;5.696;2023-06-19T07:10:55;10.38;;;6.68;;
25649;SDS011;13505;45.196;5.696;2023-06-19T07:15:45;14.43;;;7.63;;
25649;SDS011;13505;45.196;5.696;2023-06-19T07:20:36;19.60;;;7.40;;
25649;SDS011;13505;45.196;5.696;2023-06-19T07:25:26;14.70;;;8.30;;
25649;SDS011;13505;45.196;5.696;2023-06-19T07:30:17;16.65;;;8.50;;
25649;SDS011;13505;45.196;5.696;2023-06-19T07:35:07;16.17;;;8.47;;
25649;SDS011;13505;45.196;5.696;2023-06-19T07:39:58;23.55;;;8.77;;
25649;SDS011;13505;45.196;5.696;2023-06-19T07:44:48;14.17;;;8.33;;
25649;SDS011;13505;45.196;5.696;2023-06-19T07:49:38;17.63;;;7.27;;
25649;SDS011;13505;45.196;5.696;2023-06-19T07:54:29;12.93;;;7.68;;
25649;SDS011;13505;45.196;5.696;2023-06-19T07:59:19;13.85;;;7.63;;
25649;SDS011;13505;45.196;5.696;2023-06-19T08:04:10;16.92;;;8.93;;
25649;SDS011;13505;45.196;5.696;2023-06-19T08:09:00;12.50;;;8.73;;
25649;SDS011;13505;45.196;5.696;2023-06-19T08:13:51;25.37;;;10.13;;
25649;SDS011;13505;45.196;5.696;2023-06-19T08:18:41;31.73;;;10.80;;
25649;SDS011;13505;45.196;5.696;2023-06-19T08:23:32;12.60;;;7.95;;
25649;SDS011;13505;45.196;5.696;2023-06-19T08:28:22;14.23;;;7.77;;
25649;SDS011;13505;45.196;5.696;2023-06-19T08:33:13;14.82;;;7.90;;
25649;SDS011;13505;45.196;5.696;2023-06-19T08:38:04;12.65;;;7.50;;
25649;SDS011;13505;45.196;5.696;2023-06-19T08:42:54;17.00;;;7.53;;
25649;SDS011;13505;45.196;5.696;2023-06-19T08:47:46;14.50;;;7.75;;
25649;SDS011;13505;45.196;5.696;2023-06-19T08:52:37;13.15;;;8.15;;
25649;SDS011;13505;45.196;5.696;2023-06-19T08:57:40;13.57;;;7.70;;
25649;SDS011;13505;45.196;5.696;2023-06-19T09:02:39;13.98;;;9.60;;
25649;SDS011;13505;45.196;5.696;2023-06-19T09:07:30;16.15;;;7.55;;
25649;SDS011;13505;45.196;5.696;2023-06-19T09:12:20;14.50;;;7.57;;
25649;SDS011;13505;45.196;5.696;2023-06-19T09:17:12;10.80;;;8.30;;
25649;SDS011;13505;45.196;5.696;2023-06-19T09:22:07;13.55;;;8.30;;
25649;SDS011;13505;45.196;5.696;2023-06-19T09:27:05;13.13;;;8.57;;
25649;SDS011;13505;45.196;5.696;2023-06-19T09:32:01;14.88;;;9.73;;
25649;SDS011;13505;45.196;5.696;2023-06-19T09:36:53;15.70;;;10.95;;
25649;SDS011;13505;45.196;5.696;2023-06-19T09:41:43;14.95;;;9.95;;
25649;SDS011;13505;45.196;5.696;2023-06-19T09:46:36;16.15;;;10.43;;
25649;SDS011;13505;45.196;5.696;2023-06-19T09:51:29;16.13;;;10.35;;
25649;SDS011;13505;45.196;5.696;2023-06-19T09:56:27;15.75;;;11.10;;
25649;SDS011;13505;45.196;5.696;2023-06-19T10:01:17;15.27;;;10.77;;
25649;SDS011;13505;45.196;5.696;2023-06-19T10:06:12;14.95;;;10.73;;
25649;SDS011;13505;45.196;5.696;2023-06-19T10:11:03;13.15;;;10.68;;
25649;SDS011;13505;45.196;5.696;2023-06-19T10:15:54;13.38;;;10.27;;
25649;SDS011;13505;45.196;5.696;2023-06-19T10:20:45;17.73;;;11.10;;
25649;SDS011;13505;45.196;5.696;2023-06-19T10:25:37;16.50;;;11.05;;
25649;SDS011;13505;45.196;5.696;2023-06-19T10:30:29;15.88;;;11.00;;
25649;SDS011;13505;45.196;5.696;2023-06-19T10:35:19;15.02;;;11.40;;
25649;SDS011;13505;45.196;5.696;2023-06-19T10:40:14;12.13;;;10.82;;
25649;SDS011;13505;45.196;5.696;2023-06-19T10:45:05;12.95;;;9.90;;
25649;SDS011;13505;45.196;5.696;2023-06-19T10:49:58;13.80;;;10.52;;
25649;SDS011;13505;45.196;5.696;2023-06-19T10:54:55;16.30;;;10.30;;
25649;SDS011;13505;45.196;5.696;2023-06-19T10:59:50;15.70;;;10.43;;
25649;SDS011;13505;45.196;5.696;2023-06-19T11:04:40;14.57;;;10.10;;
25649;SDS011;13505;45.196;5.696;2023-06-19T11:09:31;14.90;;;9.87;;
25649;SDS011;13505;45.196;5.696;2023-06-19T11:14:21;13.70;;;9.53;;
25649;SDS011;13505;45.196;5.696;2023-06-19T11:19:16;13.02;;;8.80;;
25649;SDS011;13505;45.196;5.696;2023-06-19T11:24:11;13.55;;;8.10;;
25649;SDS011;13505;45.196;5.696;2023-06-19T11:29:13;13.65;;;8.48;;
25649;SDS011;13505;45.196;5.696;2023-06-19T11:34:09;11.43;;;8.43;;
25649;SDS011;13505;45.196;5.696;2023-06-19T11:39:00;8.57;;;7.65;;
25649;SDS011;13505;45.196;5.696;2023-06-19T11:43:50;8.63;;;7.50;;
25649;SDS011;13505;45.196;5.696;2023-06-19T11:48:40;8.83;;;7.43;;
25649;SDS011;13505;45.196;5.696;2023-06-19T11:53:31;8.30;;;7.37;;
25649;SDS011;13505;45.196;5.696;2023-06-19T11:58:21;11.57;;;7.53;;
25649;SDS011;13505;45.196;5.696;2023-06-19T12:03:11;8.43;;;7.05;;
25649;SDS011;13505;45.196;5.696;2023-06-19T12:08:02;8.30;;;7.50;;
25649;SDS011;13505;45.196;5.696;2023-06-19T12:12:54;10.27;;;7.85;;
25649;SDS011;13505;45.196;5.696;2023-06-19T12:17:45;9.53;;;7.27;;
25649;SDS011;13505;45.196;5.696;2023-06-19T12:22:35;10.75;;;7.72;;
25649;SDS011;13505;45.196;5.696;2023-06-19T12:27:26;8.75;;;7.47;;
25649;SDS011;13505;45.196;5.696;2023-06-19T12:32:16;9.13;;;7.50;;
25649;SDS011;13505;45.196;5.696;2023-06-19T12:37:06;9.77;;;7.03;;
25649;SDS011;13505;45.196;5.696;2023-06-19T12:41:57;10.77;;;7.57;;
25649;SDS011;13505;45.196;5.696;2023-06-19T12:46:47;8.50;;;7.57;;
25649;SDS011;13505;45.196;5.696;2023-06-19T12:51:37;10.27;;;7.40;;
25649;SDS011;13505;45.196;5.696;2023-06-19T12:56:28;9.50;;;6.90;;
25649;SDS011;13505;45.196;5.696;2023-06-19T13:01:18;11.63;;;7.95;;
25649;SDS011;13505;45.196;5.696;2023-06-19T13:06:09;9.33;;;7.27;;
25649;SDS011;13505;45.196;5.696;2023-06-19T13:10:59;14.27;;;7.63;;
25649;SDS011;13505;45.196;5.696;2023-06-19T13:15:49;10.63;;;7.73;;
25649;SDS011;13505;45.196;5.696;2023-06-19T13:20:40;8.30;;;7.15;;
25649;SDS011;13505;45.196;5.696;2023-06-19T13:25:30;15.07;;;7.50;;
25649;SDS011;13505;45.196;5.696;2023-06-19T13:30:22;9.77;;;7.93;;
25649;SDS011;13505;45.196;5.696;2023-06-19T13:35:12;12.87;;;7.67;;
25649;SDS011;13505;45.196;5.696;2023-06-19T13:40:03;10.25;;;7.93;;
25649;SDS011;13505;45.196;5.696;2023-06-19T13:44:53;10.18;;;7.40;;
25649;SDS011;13505;45.196;5.696;2023-06-19T13:49:44;11.85;;;7.53;;
25649;SDS011;13505;45.196;5.696;2023-06-19T13:54:34;10.67;;;7.57;;
25649;SDS011;13505;45.196;5.696;2023-06-19T13:59:24;11.50;;;7.97;;
25649;SDS011;13505;45.196;5.696;2023-06-19T14:04:15;11.97;;;7.30;;
25649;SDS011;13505;45.196;5.696;2023-06-19T14:09:05;8.98;;;7.03;;
25649;SDS011;13505;45.196;5.696;2023-06-19T14:13:55;9.35;;;7.25;;
25649;SDS011;13505;45.196;5.696;2023-06-19T14:18:46;8.32;;;7.53;;
25649;SDS011;13505;45.196;5.696;2023-06-19T14:23:36;7.68;;;6.95;;
25649;SDS011;13505;45.196;5.696;2023-06-19T14:28:32;9.80;;;7.25;;
25649;SDS011;13505;45.196;5.696;2023-06-19T14:33:23;8.55;;;7.40;;
25649;SDS011;13505;45.196;5.696;2023-06-19T14:38:13;8.88;;;6.63;;
25649;SDS011;13505;45.196;5.696;2023-06-19T14:43:06;9.93;;;6.55;;
25649;SDS011;13505;45.196;5.696;2023-06-19T14:47:58;7.68;;;6.53;;
25649;SDS011;13505;45.196;5.696;2023-06-19T14:52:49;12.63;;;6.93;;
25649;SDS011;13505;45.196;5.696;2023-06-19T14:57:39;8.00;;;6.75;;
25649;SDS011;13505;45.196;5.696;2023-06-19T15:02:29;7.43;;;6.63;;
25649;SDS011;13505;45.196;5.696;2023-06-19T15:07:20;8.98;;;6.93;;
25649;SDS011;13505;45.196;5.696;2023-06-19T15:12:10;9.52;;;6.68;;
25649;SDS011;13505;45.196;5.696;2023-06-19T15:17:01;9.83;;;7.00;;
25649;SDS011;13505;45.196;5.696;2023-06-19T15:21:51;8.40;;;6.70;;
25649;SDS011;13505;45.196;5.696;2023-06-19T15:26:41;8.87;;;7.03;;
25649;SDS011;13505;45.196;5.696;2023-06-19T15:31:32;10.13;;;7.07;;
25649;SDS011;13505;45.196;5.696;2023-06-19T15:36:22;7.73;;;6.87;;
25649;SDS011;13505;45.196;5.696;2023-06-19T15:41:12;9.03;;;6.70;;
25649;SDS011;13505;45.196;5.696;2023-06-19T15:46:03;11.30;;;7.22;;
25649;SDS011;13505;45.196;5.696;2023-06-19T15:50:56;9.48;;;7.15;;
25649;SDS011;13505;45.196;5.696;2023-06-19T15:55:46;11.20;;;7.33;;
25649;SDS011;13505;45.196;5.696;2023-06-19T16:00:37;9.90;;;7.17;;
25649;SDS011;13505;45.196;5.696;2023-06-19T16:05:27;8.27;;;6.90;;
25649;SDS011;13505;45.196;5.696;2023-06-19T16:10:18;7.57;;;6.87;;
25649;SDS011;13505;45.196;5.696;2023-06-19T16:15:09;7.47;;;6.75;;
25649;SDS011;13505;45.196;5.696;2023-06-19T16:20:03;9.27;;;7.45;;
25649;SDS011;13505;45.196;5.696;2023-06-19T16:24:53;10.02;;;7.60;;
25649;SDS011;13505;45.196;5.696;2023-06-19T16:29:44;10.97;;;7.07;;
25649;SDS011;13505;45.196;5.696;2023-06-19T16:34:34;10.00;;;8.03;;
25649;SDS011;13505;45.196;5.696;2023-06-19T16:39:24;10.93;;;7.45;;
25649;SDS011;13505;45.196;5.696;2023-06-19T16:44:15;10.85;;;7.78;;
25649;SDS011;13505;45.196;5.696;2023-06-19T16:49:05;10.48;;;7.60;;
25649;SDS011;13505;45.196;5.696;2023-06-19T16:53:56;9.20;;;7.50;;
25649;SDS011;13505;45.196;5.696;2023-06-19T16:58:46;9.33;;;7.83;;
25649;SDS011;13505;45.196;5.696;2023-06-19T17:03:36;10.37;;;7.43;;
25649;SDS011;13505;45.196;5.696;2023-06-19T17:08:27;12.30;;;7.97;;
25649;SDS011;13505;45.196;5.696;2023-06-19T17:13:17;8.98;;;7.43;;
25649;SDS011;13505;45.196;5.696;2023-06-19T17:18:07;14.87;;;7.90;;
25649;SDS011;13505;45.196;5.696;2023-06-19T17:22:58;8.60;;;7.63;;
25649;SDS011;13505;45.196;5.696;2023-06-19T17:27:48;12.03;;;8.87;;
25649;SDS011;13505;45.196;5.696;2023-06-19T17:32:39;14.17;;;7.97;;
25649;SDS011;13505;45.196;5.696;2023-06-19T17:37:32;9.30;;;7.60;;
25649;SDS011;13505;45.196;5.696;2023-06-19T17:42:22;10.52;;;7.90;;
25649;SDS011;13505;45.196;5.696;2023-06-19T17:47:12;12.48;;;8.18;;
25649;SDS011;13505;45.196;5.696;2023-06-19T17:52:03;9.00;;;8.10;;
25649;SDS011;13505;45.196;5.696;2023-06-19T17:56:53;9.73;;;8.32;;
